createdAt,value
2022-08-01T00:00:50.044Z,64.40
2022-08-01T00:03:51.609Z,64.40
2022-08-01T00:06:53.145Z,64.40
2022-08-01T00:09:54.728Z,64.40
2022-08-01T00:12:56.913Z,64.50
2022-08-01T00:15:58.421Z,64.50
2022-08-01T00:18:59.907Z,64.50
2022-08-01T00:22:01.518Z,64.70
2022-08-01T00:25:04.226Z,64.60
2022-08-01T00:28:08.736Z,64.60
2022-08-01T00:31:10.615Z,64.60
2022-08-01T00:34:12.055Z,64.50
2022-08-01T00:37:16.163Z,64.60
2022-08-01T00:40:18.038Z,64.60
2022-08-01T00:43:20.065Z,64.70
2022-08-01T00:46:21.574Z,64.70
2022-08-01T00:49:23.216Z,64.60
2022-08-01T00:52:24.925Z,64.70
2022-08-01T00:55:27.244Z,64.70
2022-08-01T00:58:31.283Z,64.60
2022-08-01T01:01:39.637Z,64.70
2022-08-01T01:04:41.641Z,64.70
2022-08-01T01:07:50.881Z,64.50
2022-08-01T01:10:57.954Z,64.60
2022-08-01T01:14:05.055Z,64.50
2022-08-01T01:17:08.255Z,64.50
2022-08-01T01:20:13.731Z,64.50
2022-08-01T01:23:39.242Z,64.40
2022-08-01T01:26:46.152Z,64.50
2022-08-01T01:29:59.355Z,64.40
2022-08-01T01:33:05.269Z,64.40
2022-08-01T01:36:11.671Z,64.30
2022-08-01T01:39:15.349Z,64.30
2022-08-01T01:42:21.098Z,64.30
2022-08-01T01:45:25.411Z,64.30
2022-08-01T01:48:27.993Z,64.30
2022-08-01T01:51:30.338Z,64.10
2022-08-01T01:54:39.615Z,64.10
2022-08-01T01:57:42.907Z,64.00
2022-08-01T02:00:46.796Z,64.00
2022-08-01T02:03:50.426Z,64.00
2022-08-01T02:06:53.377Z,63.90
2022-08-01T02:09:56.025Z,63.90
2022-08-01T02:13:00.144Z,63.80
2022-08-01T02:16:04.810Z,63.70
2022-08-01T02:19:06.985Z,63.80
2022-08-01T02:22:12.254Z,63.60
2022-08-01T02:25:23.101Z,63.70
2022-08-01T02:28:29.075Z,63.60
2022-08-01T02:31:35.684Z,63.60
2022-08-01T02:34:37.353Z,63.50
2022-08-01T02:37:41.857Z,63.40
2022-08-01T02:40:50.754Z,63.50
2022-08-01T02:43:58.017Z,63.30
2022-08-01T02:47:02.643Z,63.20
2022-08-01T02:50:08.292Z,63.20
2022-08-01T02:53:12.853Z,63.30
2022-08-01T02:56:19.343Z,63.30
2022-08-01T02:59:25.895Z,63.10
2022-08-01T03:02:29.913Z,63.10
2022-08-01T03:05:33.362Z,63.10
2022-08-01T03:08:37.080Z,63.00
2022-08-01T03:11:42.031Z,62.90
2022-08-01T03:14:46.365Z,62.90
2022-08-01T03:17:51.931Z,62.90
2022-08-01T03:20:56.180Z,62.90
2022-08-01T03:24:00.259Z,63.00
2022-08-01T03:27:03.209Z,63.00
2022-08-01T03:30:06.408Z,63.00
2022-08-01T03:33:09.329Z,63.10
2022-08-01T03:36:18.799Z,63.10
2022-08-01T03:39:25.539Z,62.90
2022-08-01T03:42:33.380Z,62.90
2022-08-01T03:45:38.960Z,62.70
2022-08-01T03:48:47.379Z,62.70
2022-08-01T03:51:51.460Z,62.70
2022-08-01T03:54:55.976Z,62.60
2022-08-01T03:57:58.951Z,62.50
2022-08-01T04:01:00.948Z,62.30
2022-08-01T04:04:05.285Z,62.90
2022-08-01T04:07:22.166Z,62.20
2022-08-01T04:10:24.350Z,62.10
2022-08-01T04:13:25.935Z,62.00
2022-08-01T04:16:38.493Z,61.90
2022-08-01T04:19:40.837Z,61.80
2022-08-01T04:22:43.104Z,61.70
2022-08-01T04:25:46.963Z,61.60
2022-08-01T04:28:51.343Z,61.40
2022-08-01T04:31:55.063Z,61.50
2022-08-01T04:35:00.353Z,61.40
2022-08-01T04:38:03.231Z,61.20
2022-08-01T04:41:09.083Z,61.30
2022-08-01T04:44:11.731Z,61.20
2022-08-01T04:47:13.681Z,61.00
2022-08-01T04:50:16.036Z,61.00
2022-08-01T04:53:19.294Z,60.90
2022-08-01T04:56:21.322Z,60.80
2022-08-01T04:59:40.912Z,60.80
2022-08-01T05:02:42.589Z,61.30
2022-08-01T05:05:44.631Z,60.70
2022-08-01T05:08:46.223Z,60.50
2022-08-01T05:11:47.708Z,60.60
2022-08-01T05:14:49.191Z,60.60
2022-08-01T05:17:53.802Z,60.50
2022-08-01T05:20:55.841Z,60.50
2022-08-01T05:23:58.187Z,60.30
2022-08-01T05:27:00.217Z,60.30
2022-08-01T05:30:02.369Z,60.20
2022-08-01T05:33:03.887Z,60.10
2022-08-01T05:36:06.447Z,60.20
2022-08-01T05:39:08.086Z,60.00
2022-08-01T05:42:09.612Z,60.00
2022-08-01T05:45:11.175Z,59.90
2022-08-01T05:48:12.736Z,59.90
2022-08-01T05:51:14.759Z,59.80
2022-08-01T05:54:16.274Z,59.80
2022-08-01T05:57:17.864Z,59.80
2022-08-01T06:00:19.673Z,59.70
2022-08-01T06:03:21.454Z,59.70
2022-08-01T06:06:25.563Z,59.60
2022-08-01T06:09:27.533Z,59.60
2022-08-01T06:12:32.477Z,59.60
2022-08-01T06:15:36.902Z,59.60
2022-08-01T06:18:38.653Z,59.50
2022-08-01T06:21:40.753Z,59.60
2022-08-01T06:24:42.161Z,59.50
2022-08-01T06:27:43.611Z,59.50
2022-08-01T06:30:45.402Z,59.50
2022-08-01T06:33:46.870Z,59.50
2022-08-01T06:36:49.009Z,59.60
2022-08-01T06:39:51.076Z,59.50
2022-08-01T06:42:52.640Z,59.50
2022-08-01T06:45:54.199Z,59.50
2022-08-01T06:48:56.011Z,59.50
2022-08-01T06:51:58.087Z,60.10
2022-08-01T06:54:59.759Z,59.60
2022-08-01T06:58:01.347Z,59.50
2022-08-01T07:01:05.970Z,59.40
2022-08-01T07:04:07.709Z,59.40
2022-08-01T07:07:09.857Z,59.40
2022-08-01T07:10:12.279Z,59.30
2022-08-01T07:13:15.167Z,59.50
2022-08-01T07:16:17.387Z,59.50
2022-08-01T07:19:22.208Z,59.50
2022-08-01T07:22:24.365Z,59.50
2022-08-01T07:25:26.144Z,59.60
2022-08-01T07:28:27.828Z,59.50
2022-08-01T07:31:32.355Z,59.60
2022-08-01T07:34:34.144Z,59.50
2022-08-01T07:37:42.100Z,59.60
2022-08-01T07:40:49.737Z,59.50
2022-08-01T07:43:57.907Z,59.60
2022-08-01T07:47:01.222Z,59.50
2022-08-01T07:50:03.812Z,59.50
2022-08-01T07:53:05.951Z,59.50
2022-08-01T07:56:07.475Z,59.40
2022-08-01T07:59:09.013Z,59.20
2022-08-01T08:02:11.184Z,59.30
2022-08-01T08:05:13.162Z,59.20
2022-08-01T08:08:18.693Z,59.20
2022-08-01T08:11:23.509Z,59.20
2022-08-01T08:14:32.220Z,59.10
2022-08-01T08:17:35.655Z,59.00
2022-08-01T08:20:37.931Z,59.10
2022-08-01T08:23:51.670Z,59.10
2022-08-01T08:26:55.808Z,59.00
2022-08-01T08:29:57.378Z,59.00
2022-08-01T08:32:59.167Z,59.00
2022-08-01T08:36:00.597Z,58.90
2022-08-01T08:39:03.797Z,58.90
2022-08-01T08:42:08.324Z,58.90
2022-08-01T08:45:12.736Z,58.90
2022-08-01T08:48:14.846Z,58.90
2022-08-01T08:51:21.605Z,58.80
2022-08-01T08:54:31.014Z,58.70
2022-08-01T08:57:33.584Z,58.70
2022-08-01T09:00:36.106Z,58.70
2022-08-01T09:03:37.767Z,58.60
2022-08-01T09:06:40.312Z,58.60
2022-08-01T09:09:43.004Z,58.60
2022-08-01T09:13:11.074Z,58.60
2022-08-01T09:16:17.719Z,58.50
2022-08-01T09:19:38.943Z,59.00
2022-08-01T09:22:45.079Z,58.40
2022-08-01T09:25:53.152Z,58.50
2022-08-01T09:28:59.634Z,59.00
2022-08-01T09:32:06.462Z,58.30
2022-08-01T09:35:23.462Z,58.30
2022-08-01T09:38:27.375Z,58.20
2022-08-01T09:41:37.955Z,58.20
2022-08-01T09:44:55.077Z,58.10
2022-08-01T09:47:57.169Z,58.00
2022-08-01T09:51:04.076Z,58.10
2022-08-01T09:54:09.153Z,57.80
2022-08-01T09:57:15.493Z,57.80
2022-08-01T10:00:29.585Z,57.70
2022-08-01T10:03:40.239Z,57.70
2022-08-01T10:06:44.249Z,57.60
2022-08-01T10:09:47.160Z,57.60
2022-08-01T10:12:51.778Z,57.50
2022-08-01T10:15:54.667Z,57.60
2022-08-01T10:19:01.011Z,57.50
2022-08-01T10:22:09.136Z,57.40
2022-08-01T10:25:14.516Z,57.40
2022-08-01T10:28:23.858Z,57.40
2022-08-01T10:31:30.563Z,57.30
2022-08-01T10:34:34.330Z,57.20
2022-08-01T10:37:51.609Z,57.30
2022-08-01T10:40:57.485Z,57.20
2022-08-01T10:44:01.625Z,57.60
2022-08-01T10:47:09.868Z,57.20
2022-08-01T10:50:21.939Z,57.00
2022-08-01T10:53:31.013Z,57.00
2022-08-01T10:56:41.289Z,56.90
2022-08-01T11:00:01.035Z,56.90
2022-08-01T11:03:04.142Z,56.90
2022-08-01T11:06:06.701Z,56.90
2022-08-01T11:09:24.753Z,56.80
2022-08-01T11:12:40.633Z,56.80
2022-08-01T11:15:49.932Z,56.90
2022-08-01T11:18:52.541Z,56.80
2022-08-01T11:22:04.014Z,56.80
2022-08-01T11:25:06.001Z,56.70
2022-08-01T11:28:29.036Z,56.70
2022-08-01T11:31:37.535Z,56.80
2022-08-01T11:34:54.102Z,56.60
2022-08-01T11:37:56.681Z,56.80
2022-08-01T11:41:10.865Z,56.70
2022-08-01T11:44:14.765Z,56.70
2022-08-01T11:47:17.390Z,56.70
2022-08-01T11:50:31.790Z,56.70
2022-08-01T11:53:33.587Z,56.60
2022-08-01T11:56:35.208Z,56.80
2022-08-01T12:00:03.675Z,56.70
2022-08-01T12:03:20.649Z,56.80
2022-08-01T12:06:35.286Z,56.70
2022-08-01T12:09:36.827Z,56.70
2022-08-01T12:12:44.918Z,56.80
2022-08-01T12:15:47.625Z,56.70
2022-08-01T12:18:50.465Z,56.60
2022-08-01T12:22:11.448Z,56.70
2022-08-01T12:25:14.669Z,56.60
2022-08-01T12:28:18.139Z,56.70
2022-08-01T12:31:31.834Z,56.60
2022-08-01T12:34:34.724Z,56.70
2022-08-01T12:37:37.594Z,56.70
2022-08-01T12:40:45.505Z,56.60
2022-08-01T12:43:48.523Z,56.60
2022-08-01T12:46:50.233Z,56.70
2022-08-01T12:49:52.608Z,56.50
2022-08-01T12:52:54.401Z,57.20
2022-08-01T12:55:59.522Z,56.60
2022-08-01T12:59:02.539Z,56.70
2022-08-01T13:02:09.495Z,56.70
2022-08-01T13:05:13.023Z,56.60
2022-08-01T13:08:16.518Z,56.70
2022-08-01T13:11:19.196Z,56.60
2022-08-01T13:14:28.628Z,56.70
2022-08-01T13:17:31.812Z,56.70
2022-08-01T13:20:35.402Z,56.80
2022-08-01T13:24:02.869Z,56.80
2022-08-01T13:27:03.419Z,56.80
2022-08-01T13:30:13.610Z,56.90
2022-08-01T13:33:15.372Z,57.00
2022-08-01T13:36:19.686Z,56.90
2022-08-01T13:39:47.630Z,57.00
2022-08-01T13:42:49.424Z,56.90
2022-08-01T13:45:51.330Z,57.10
2022-08-01T13:48:52.873Z,57.10
2022-08-01T13:51:56.327Z,57.10
2022-08-01T13:54:58.076Z,57.10
2022-08-01T13:57:59.997Z,57.10
2022-08-01T14:01:01.557Z,57.10
2022-08-01T14:04:06.602Z,57.20
2022-08-01T14:07:13.061Z,57.20
2022-08-01T14:10:18.378Z,57.10
2022-08-01T14:13:23.688Z,57.20
2022-08-01T14:16:25.595Z,57.10
2022-08-01T14:19:38.695Z,57.20
2022-08-01T14:22:41.903Z,57.20
2022-08-01T14:26:00.273Z,57.30
2022-08-01T14:29:05.423Z,57.30
2022-08-01T14:32:07.308Z,57.30
2022-08-01T14:35:09.524Z,57.40
2022-08-01T14:38:11.612Z,57.20
2022-08-01T14:41:23.346Z,57.30
2022-08-01T14:44:24.894Z,57.20
2022-08-01T14:47:29.724Z,57.30
2022-08-01T14:50:31.241Z,57.20
2022-08-01T14:53:36.053Z,57.40
2022-08-01T14:56:37.775Z,57.30
2022-08-01T14:59:39.294Z,57.20
2022-08-01T15:02:40.921Z,57.20
2022-08-01T15:05:42.629Z,57.30
2022-08-01T15:08:44.950Z,57.20
2022-08-01T15:11:47.109Z,57.20
2022-08-01T15:14:48.609Z,57.10
2022-08-01T15:17:51.850Z,57.20
2022-08-01T15:20:53.332Z,57.10
2022-08-01T15:23:55.498Z,57.20
2022-08-01T15:26:57.117Z,57.20
2022-08-01T15:29:58.676Z,57.10
2022-08-01T15:33:00.277Z,57.10
2022-08-01T15:36:01.858Z,57.10
2022-08-01T15:39:04.198Z,57.00
2022-08-01T15:42:09.167Z,56.90
2022-08-01T15:45:25.575Z,56.80
2022-08-01T15:48:39.644Z,56.90
2022-08-01T15:51:41.855Z,56.80
2022-08-01T15:54:43.926Z,56.90
2022-08-01T15:57:45.544Z,56.80
2022-08-01T16:00:47.063Z,56.80
2022-08-01T16:03:48.775Z,56.90
2022-08-01T16:06:50.654Z,56.80
2022-08-01T16:09:52.804Z,56.70
2022-08-01T16:12:54.245Z,56.70
2022-08-01T16:15:55.813Z,56.70
2022-08-01T16:18:57.483Z,56.70
2022-08-01T16:21:59.003Z,56.70
2022-08-01T16:25:01.181Z,57.30
2022-08-01T16:28:02.872Z,56.60
2022-08-01T16:31:12.671Z,56.70
2022-08-01T16:34:24.555Z,56.70
2022-08-01T16:37:26.200Z,56.70
2022-08-01T16:40:28.314Z,56.70
2022-08-01T16:43:30.161Z,56.60
2022-08-01T16:46:31.686Z,56.60
2022-08-01T16:49:33.359Z,56.50
2022-08-01T16:52:34.940Z,56.50
2022-08-01T16:55:49.684Z,56.40
2022-08-01T16:58:55.518Z,56.40
2022-08-01T17:01:59.434Z,56.40
2022-08-01T17:05:07.019Z,56.20
2022-08-01T17:08:11.072Z,56.30
2022-08-01T17:11:13.568Z,56.20
2022-08-01T17:14:15.197Z,56.30
2022-08-01T17:17:16.837Z,56.10
2022-08-01T17:20:18.419Z,56.20
2022-08-01T17:23:19.960Z,56.10
2022-08-01T17:26:22.099Z,56.00
2022-08-01T17:29:26.857Z,56.00
2022-08-01T17:32:28.349Z,55.90
2022-08-01T17:35:30.040Z,55.90
2022-08-01T17:38:35.541Z,55.80
2022-08-01T17:41:38.174Z,55.90
2022-08-01T17:44:41.615Z,55.80
2022-08-01T17:47:50.907Z,55.90
2022-08-01T17:50:56.911Z,55.80
2022-08-01T17:53:58.432Z,56.00
2022-08-01T17:57:00.943Z,56.00
2022-08-01T18:00:03.709Z,56.60
2022-08-01T18:03:08.184Z,56.10
2022-08-01T18:06:10.287Z,56.10
2022-08-01T18:09:11.951Z,56.20
2022-08-01T18:12:14.840Z,56.30
2022-08-01T18:15:16.433Z,56.30
2022-08-01T18:18:19.940Z,56.40
2022-08-01T18:21:35.934Z,56.40
2022-08-01T18:24:40.104Z,56.50
2022-08-01T18:28:16.594Z,56.60
2022-08-01T18:31:07.136Z,56.70
2022-08-01T18:34:08.710Z,56.70
2022-08-01T18:37:12.288Z,56.80
2022-08-01T18:40:20.904Z,56.90
2022-08-01T18:43:24.999Z,56.90
2022-08-01T18:46:26.517Z,57.00
2022-08-01T18:49:29.459Z,57.00
2022-08-01T18:52:31.835Z,57.00
2022-08-01T18:55:33.546Z,57.00
2022-08-01T18:58:35.561Z,57.20
2022-08-01T19:01:38.745Z,57.10
2022-08-01T19:04:40.236Z,57.10
2022-08-01T19:08:06.988Z,57.10
2022-08-01T19:11:05.806Z,57.10
2022-08-01T19:14:08.491Z,57.20
2022-08-01T19:17:10.475Z,57.20
2022-08-01T19:20:12.614Z,57.10
2022-08-01T19:23:29.244Z,57.20
2022-08-01T19:26:33.463Z,57.10
2022-08-01T19:29:39.626Z,57.20
2022-08-01T19:32:42.862Z,57.10
2022-08-01T19:35:45.244Z,57.10
2022-08-01T19:38:47.183Z,57.10
2022-08-01T19:41:50.143Z,57.10
2022-08-01T19:44:52.374Z,57.30
2022-08-01T19:47:56.522Z,57.10
2022-08-01T19:51:01.353Z,57.20
2022-08-01T19:54:05.648Z,57.80
2022-08-01T19:57:08.726Z,57.30
2022-08-01T20:00:23.826Z,57.20
2022-08-01T20:03:35.691Z,57.40
2022-08-01T20:06:37.641Z,57.50
2022-08-01T20:09:40.280Z,57.50
2022-08-01T20:12:41.929Z,57.50
2022-08-01T20:15:44.600Z,57.60
2022-08-01T20:18:46.029Z,57.70
2022-08-01T20:22:02.703Z,57.60
2022-08-01T20:25:06.979Z,57.60
2022-08-01T20:28:10.380Z,57.60
2022-08-01T20:31:13.107Z,57.80
2022-08-01T20:34:19.392Z,58.00
2022-08-01T20:38:04.081Z,57.80
2022-08-01T20:40:44.756Z,57.90
2022-08-01T20:43:47.873Z,58.00
2022-08-01T20:46:52.136Z,58.00
2022-08-01T20:50:28.514Z,58.00
2022-08-01T20:53:40.025Z,58.00
2022-08-01T20:56:50.295Z,58.00
2022-08-01T21:00:00.063Z,58.00
2022-08-01T21:03:13.405Z,58.10
2022-08-01T21:06:24.874Z,58.10
2022-08-01T21:09:28.375Z,58.10
2022-08-01T21:12:44.388Z,58.10
2022-08-01T21:15:59.893Z,58.10
2022-08-01T21:19:21.834Z,58.10
2022-08-01T21:22:31.374Z,58.10
2022-08-01T21:25:34.423Z,58.00
2022-08-01T21:28:36.436Z,58.10
2022-08-01T21:31:40.948Z,58.10
2022-08-01T21:34:46.383Z,58.10
2022-08-01T21:37:52.507Z,58.00
2022-08-01T21:40:55.161Z,58.10
2022-08-01T21:44:01.339Z,58.20
2022-08-01T21:47:06.212Z,58.10
2022-08-01T21:50:09.455Z,58.10
2022-08-01T21:53:22.154Z,58.10
2022-08-01T21:56:41.926Z,58.10
2022-08-01T21:59:53.483Z,58.20
2022-08-01T22:03:00.259Z,58.20
2022-08-01T22:06:04.472Z,58.20
2022-08-01T22:09:07.782Z,58.20
2022-08-01T22:12:16.000Z,58.20
2022-08-01T22:15:23.568Z,58.20
2022-08-01T22:18:27.463Z,58.20
2022-08-01T22:21:29.907Z,58.20
2022-08-01T22:24:32.256Z,58.20
2022-08-01T22:28:03.204Z,58.30
2022-08-01T22:30:56.837Z,58.30
2022-08-01T22:33:58.521Z,58.20
2022-08-01T22:37:00.549Z,58.30
2022-08-01T22:40:10.485Z,58.90
2022-08-01T22:43:23.175Z,58.40
2022-08-01T22:46:32.756Z,58.30
2022-08-01T22:49:39.939Z,58.30
2022-08-01T22:52:50.575Z,58.40
2022-08-01T22:55:58.222Z,58.40
2022-08-01T22:59:06.134Z,58.40
2022-08-01T23:02:10.325Z,58.50
2022-08-01T23:05:20.983Z,58.40
2022-08-01T23:08:23.533Z,58.40
2022-08-01T23:11:25.964Z,58.50
2022-08-01T23:14:27.913Z,58.50
2022-08-01T23:17:35.133Z,58.60
2022-08-01T23:20:37.201Z,58.50
2022-08-01T23:23:39.596Z,58.70
2022-08-01T23:26:41.821Z,58.60
2022-08-01T23:29:46.144Z,58.60
2022-08-01T23:32:47.660Z,58.60
2022-08-01T23:35:49.172Z,58.80
2022-08-01T23:38:51.329Z,58.70
2022-08-01T23:41:57.956Z,58.70
2022-08-01T23:45:00.518Z,58.70
2022-08-01T23:48:02.482Z,58.90
2022-08-01T23:51:05.979Z,58.80
2022-08-01T23:54:08.095Z,58.80
2022-08-01T23:57:10.137Z,58.90
